sensor_id;sensor_type;location;lat;lon;timestamp;pressure;altitude;pressure_sealevel;temperature;humidity
21504;BME280;10913;51.992;9.228;2023-04-02T00:07:37;99808.03;;;6.40;100.00
21504;BME280;10913;51.992;9.228;2023-04-02T00:15:25;99820.28;;;6.35;100.00
21504;BME280;10913;51.992;9.228;2023-04-02T00:17:50;99822.91;;;6.35;100.00
21504;BME280;10913;51.992;9.228;2023-04-02T00:20:16;99823.78;;;6.40;100.00
21504;BME280;10913;51.992;9.228;2023-04-02T00:22:44;99830.78;;;6.38;100.00
21504;BME280;10913;51.992;9.228;2023-04-02T00:25:12;99840.41;;;6.35;100.00
21504;BME280;10913;51.992;9.228;2023-04-02T00:27:38;99843.00;;;6.32;100.00
21504;BME280;10913;51.992;9.228;2023-04-02T00:30:05;99840.41;;;6.33;100.00
21504;BME280;10913;51.992;9.228;2023-04-02T00:32:32;99838.63;;;6.29;100.00
21504;BME280;10913;51.992;9.228;2023-04-02T00:34:59;99851.75;;;6.34;100.00
21504;BME280;10913;51.992;9.228;2023-04-02T00:37:30;99857.91;;;6.37;100.00
21504;BME280;10913;51.992;9.228;2023-04-02T00:40:27;99863.09;;;6.27;100.00
21504;BME280;10913;51.992;9.228;2023-04-02T00:42:55;99857.84;;;6.19;100.00
21504;BME280;10913;51.992;9.228;2023-04-02T00:45:28;99863.94;;;6.12;100.00
21504;BME280;10913;51.992;9.228;2023-04-02T00:47:57;99866.50;;;6.03;100.00
21504;BME280;10913;51.992;9.228;2023-04-02T00:50:33;99873.47;;;5.98;100.00
21504;BME280;10913;51.992;9.228;2023-04-02T00:53:03;99880.41;;;5.90;100.00
21504;BME280;10913;51.992;9.228;2023-04-02T00:55:38;99872.47;;;5.82;100.00
21504;BME280;10913;51.992;9.228;2023-04-02T00:58:21;99881.22;;;5.84;100.00
21504;BME280;10913;51.992;9.228;2023-04-02T01:00:49;99887.31;;;5.81;100.00
21504;BME280;10913;51.992;9.228;2023-04-02T01:05:41;99899.56;;;5.82;100.00
21504;BME280;10913;51.992;9.228;2023-04-02T01:11:50;99907.41;;;5.81;100.00
21504;BME280;10913;51.992;9.228;2023-04-02T01:25:18;99915.22;;;5.70;100.00
21504;BME280;10913;51.992;9.228;2023-04-02T01:27:53;99922.16;;;5.64;100.00
21504;BME280;10913;51.992;9.228;2023-04-02T01:30:24;99929.09;;;5.57;100.00
21504;BME280;10913;51.992;9.228;2023-04-02T01:32:51;99928.22;;;5.55;100.00
21504;BME280;10913;51.992;9.228;2023-04-02T01:35:18;99938.66;;;5.50;100.00
21504;BME280;10913;51.992;9.228;2023-04-02T01:37:55;99941.25;;;5.49;100.00
21504;BME280;10913;51.992;9.228;2023-04-02T01:40:34;99952.53;;;5.40;100.00
21504;BME280;10913;51.992;9.228;2023-04-02T01:46:05;99976.06;;;5.33;100.00
21504;BME280;10913;51.992;9.228;2023-04-02T01:48:47;99975.91;;;5.17;100.00
21504;BME280;10913;51.992;9.228;2023-04-02T01:51:25;99987.28;;;5.19;100.00
21504;BME280;10913;51.992;9.228;2023-04-02T01:53:51;100000.41;;;5.26;100.00
21504;BME280;10913;51.992;9.228;2023-04-02T01:56:17;100006.56;;;5.29;100.00
21504;BME280;10913;51.992;9.228;2023-04-02T01:58:42;100003.81;;;5.15;100.00
21504;BME280;10913;51.992;9.228;2023-04-02T02:01:16;100016.94;;;5.17;100.00
21504;BME280;10913;51.992;9.228;2023-04-02T02:03:43;100017.81;;;5.17;100.00
21504;BME280;10913;51.992;9.228;2023-04-02T02:06:13;100024.81;;;5.18;100.00
21504;BME280;10913;51.992;9.228;2023-04-02T02:11:09;100029.25;;;5.27;100.00
21504;BME280;10913;51.992;9.228;2023-04-02T02:13:36;100040.63;;;5.31;100.00
21504;BME280;10913;51.992;9.228;2023-04-02T02:16:02;100045.88;;;5.31;100.00
21504;BME280;10913;51.992;9.228;2023-04-02T02:18:29;100045.75;;;5.22;100.00
21504;BME280;10913;51.992;9.228;2023-04-02T02:20:57;100057.13;;;5.24;100.00
21504;BME280;10913;51.992;9.228;2023-04-02T02:23:23;100053.59;;;5.17;100.00
21504;BME280;10913;51.992;9.228;2023-04-02T02:25:50;100055.34;;;5.18;100.00
21504;BME280;10913;51.992;9.228;2023-04-02T02:28:30;100053.50;;;5.09;100.00
21504;BME280;10913;51.992;9.228;2023-04-02T02:31:12;100071.84;;;5.12;100.00
21504;BME280;10913;51.992;9.228;2023-04-02T02:33:47;100069.25;;;5.12;100.00
21504;BME280;10913;51.992;9.228;2023-04-02T02:39:39;100088.25;;;4.96;100.00
21504;BME280;10913;51.992;9.228;2023-04-02T02:41:45;100089.09;;;4.95;100.00
21504;BME280;10913;51.992;9.228;2023-04-02T02:44:22;100097.88;;;5.00;100.00
21504;BME280;10913;51.992;9.228;2023-04-02T02:47:03;100100.56;;;5.05;100.00
21504;BME280;10913;51.992;9.228;2023-04-02T02:49:35;100102.38;;;5.10;100.00
21504;BME280;10913;51.992;9.228;2023-04-02T02:52:16;100113.72;;;5.09;100.00
21504;BME280;10913;51.992;9.228;2023-04-02T02:54:46;100122.41;;;5.08;100.00
21504;BME280;10913;51.992;9.228;2023-04-02T02:57:18;100118.03;;;5.06;100.00
21504;BME280;10913;51.992;9.228;2023-04-02T02:59:46;100127.56;;;5.02;100.00
21504;BME280;10913;51.992;9.228;2023-04-02T03:02:13;100123.94;;;4.91;100.00
21504;BME280;10913;51.992;9.228;2023-04-02T03:04:39;100122.94;;;4.81;100.00
21504;BME280;10913;51.992;9.228;2023-04-02T03:07:06;100125.53;;;4.78;100.00
21504;BME280;10913;51.992;9.228;2023-04-02T03:09:51;100133.41;;;4.83;100.00
21504;BME280;10913;51.992;9.228;2023-04-02T03:15:07;100135.13;;;4.81;100.00
21504;BME280;10913;51.992;9.228;2023-04-02T03:20:20;100159.53;;;4.77;100.00
21504;BME280;10913;51.992;9.228;2023-04-02T03:22:57;100163.94;;;4.79;100.00
21504;BME280;10913;51.992;9.228;2023-04-02T03:28:01;100177.69;;;4.68;100.00
21504;BME280;10913;51.992;9.228;2023-04-02T03:30:45;100187.97;;;4.54;100.00
21504;BME280;10913;51.992;9.228;2023-04-02T03:33:19;100205.38;;;4.54;100.00
21504;BME280;10913;51.992;9.228;2023-04-02T03:38:49;100206.03;;;4.40;100.00
21504;BME280;10913;51.992;9.228;2023-04-02T03:41:42;100219.16;;;4.43;100.00
21504;BME280;10913;51.992;9.228;2023-04-02T03:44:29;100220.97;;;4.47;100.00
21504;BME280;10913;51.992;9.228;2023-04-02T03:47:02;100231.44;;;4.47;100.00
21504;BME280;10913;51.992;9.228;2023-04-02T03:52:39;100222.72;;;4.47;100.00
21504;BME280;10913;51.992;9.228;2023-04-02T03:55:12;100241.97;;;4.50;100.00
21504;BME280;10913;51.992;9.228;2023-04-02T03:57:44;100240.09;;;4.43;99.55
21504;BME280;10913;51.992;9.228;2023-04-02T04:02:52;100252.03;;;4.28;100.00
21504;BME280;10913;51.992;9.228;2023-04-02T04:05:58;100255.56;;;4.31;100.00
21504;BME280;10913;51.992;9.228;2023-04-02T04:08:30;100265.94;;;4.27;100.00
21504;BME280;10913;51.992;9.228;2023-04-02T04:11:02;100268.56;;;4.27;100.00
21504;BME280;10913;51.992;9.228;2023-04-02T04:13:38;100270.28;;;4.26;100.00
21504;BME280;10913;51.992;9.228;2023-04-02T04:16:08;100276.44;;;4.28;100.00
21504;BME280;10913;51.992;9.228;2023-04-02T04:18:44;100288.66;;;4.29;100.00
21504;BME280;10913;51.992;9.228;2023-04-02T04:21:21;100294.78;;;4.30;100.00
21504;BME280;10913;51.992;9.228;2023-04-02T04:23:54;100300.06;;;4.33;100.00
21504;BME280;10913;51.992;9.228;2023-04-02T04:34:09;100319.25;;;4.33;99.87
21504;BME280;10913;51.992;9.228;2023-04-02T04:36:46;100316.44;;;4.24;98.56
21504;BME280;10913;51.992;9.228;2023-04-02T04:39:48;100335.59;;;4.23;99.01
21504;BME280;10913;51.992;9.228;2023-04-02T04:42:19;100337.34;;;4.24;99.25
21504;BME280;10913;51.992;9.228;2023-04-02T04:47:36;100343.47;;;4.25;99.75
21504;BME280;10913;51.992;9.228;2023-04-02T04:50:09;100352.13;;;4.22;98.67
21504;BME280;10913;51.992;9.228;2023-04-02T04:52:41;100352.94;;;4.18;98.67
21504;BME280;10913;51.992;9.228;2023-04-02T04:57:46;100365.19;;;4.19;98.00
21504;BME280;10913;51.992;9.228;2023-04-02T05:00:18;100364.25;;;4.17;98.59
21504;BME280;10913;51.992;9.228;2023-04-02T05:02:50;100372.78;;;4.08;97.64
21504;BME280;10913;51.992;9.228;2023-04-02T05:05:23;100380.59;;;4.07;98.65
21504;BME280;10913;51.992;9.228;2023-04-02T05:07:55;100383.19;;;4.05;98.91
21504;BME280;10913;51.992;9.228;2023-04-02T05:10:32;100394.53;;;4.07;99.17
21504;BME280;10913;51.992;9.228;2023-04-02T05:13:04;100394.47;;;4.04;96.03
21504;BME280;10913;51.992;9.228;2023-04-02T05:15:40;100402.25;;;4.01;97.57
21504;BME280;10913;51.992;9.228;2023-04-02T05:21:04;100411.97;;;4.07;98.57
21504;BME280;10913;51.992;9.228;2023-04-02T05:24:20;100418.94;;;4.08;98.26
21504;BME280;10913;51.992;9.228;2023-04-02T05:26:49;100431.88;;;4.02;96.88
21504;BME280;10913;51.992;9.228;2023-04-02T05:29:28;100417.91;;;4.00;97.70
21504;BME280;10913;51.992;9.228;2023-04-02T05:32:05;100431.88;;;4.02;97.62
21504;BME280;10913;51.992;9.228;2023-04-02T05:34:37;100432.88;;;4.07;98.66
21504;BME280;10913;51.992;9.228;2023-04-02T05:37:05;100446.00;;;4.10;97.84
21504;BME280;10913;51.992;9.228;2023-04-02T05:39:33;100439.06;;;4.10;96.99
21504;BME280;10913;51.992;9.228;2023-04-02T05:42:05;100442.63;;;4.14;96.89
21504;BME280;10913;51.992;9.228;2023-04-02T05:44:35;100453.94;;;4.13;94.50
21504;BME280;10913;51.992;9.228;2023-04-02T05:47:20;100452.31;;;4.18;95.89
21504;BME280;10913;51.992;9.228;2023-04-02T05:52:33;100460.94;;;4.14;92.91
21504;BME280;10913;51.992;9.228;2023-04-02T05:57:50;100477.25;;;4.04;94.62
21504;BME280;10913;51.992;9.228;2023-04-02T06:00:23;100482.47;;;4.04;94.17
21504;BME280;10913;51.992;9.228;2023-04-02T06:02:57;100488.69;;;4.09;95.12
21504;BME280;10913;51.992;9.228;2023-04-02T06:05:31;100500.97;;;4.13;93.83
21504;BME280;10913;51.992;9.228;2023-04-02T06:08:03;100500.13;;;4.14;93.73
21504;BME280;10913;51.992;9.228;2023-04-02T06:10:36;100501.97;;;4.18;93.77
21504;BME280;10913;51.992;9.228;2023-04-02T06:13:07;100508.97;;;4.21;93.31
21504;BME280;10913;51.992;9.228;2023-04-02T06:15:34;100517.75;;;4.23;93.08
21504;BME280;10913;51.992;9.228;2023-04-02T06:18:08;100518.72;;;4.28;93.93
21504;BME280;10913;51.992;9.228;2023-04-02T06:20:33;100526.69;;;4.32;94.32
21504;BME280;10913;51.992;9.228;2023-04-02T06:23:02;100543.38;;;4.37;94.41
21504;BME280;10913;51.992;9.228;2023-04-02T06:25:35;100539.00;;;4.36;93.04
21504;BME280;10913;51.992;9.228;2023-04-02T06:28:04;100545.97;;;4.36;91.85
21504;BME280;10913;51.992;9.228;2023-04-02T06:30:34;100561.66;;;4.36;91.92
21504;BME280;10913;51.992;9.228;2023-04-02T06:33:02;100562.31;;;4.27;90.42
21504;BME280;10913;51.992;9.228;2023-04-02T06:35:28;100572.63;;;4.21;89.56
21504;BME280;10913;51.992;9.228;2023-04-02T06:37:55;100564.63;;;4.13;89.35
21504;BME280;10913;51.992;9.228;2023-04-02T06:40:32;100577.72;;;4.15;91.09
21504;BME280;10913;51.992;9.228;2023-04-02T06:43:02;100591.75;;;4.20;92.36
21504;BME280;10913;51.992;9.228;2023-04-02T06:45:37;100594.88;;;4.04;89.30
21504;BME280;10913;51.992;9.228;2023-04-02T06:48:12;100600.00;;;4.01;91.05
21504;BME280;10913;51.992;9.228;2023-04-02T06:51:27;100592.91;;;3.94;90.19
21504;BME280;10913;51.992;9.228;2023-04-02T06:53:43;100605.13;;;3.95;92.12
21504;BME280;10913;51.992;9.228;2023-04-02T06:58:47;100609.41;;;3.93;90.14
21504;BME280;10913;51.992;9.228;2023-04-02T07:01:20;100619.09;;;3.97;91.10
21504;BME280;10913;51.992;9.228;2023-04-02T07:03:46;100623.59;;;4.02;91.31
21504;BME280;10913;51.992;9.228;2023-04-02T07:06:18;100628.16;;;4.11;92.28
21504;BME280;10913;51.992;9.228;2023-04-02T07:08:44;100630.09;;;4.18;93.19
21504;BME280;10913;51.992;9.228;2023-04-02T07:11:14;100638.03;;;4.23;92.12
21504;BME280;10913;51.992;9.228;2023-04-02T07:13:41;100641.47;;;4.22;89.18
21504;BME280;10913;51.992;9.228;2023-04-02T07:16:14;100649.28;;;4.20;88.93
21504;BME280;10913;51.992;9.228;2023-04-02T07:18:40;100652.69;;;4.16;89.74
21504;BME280;10913;51.992;9.228;2023-04-02T07:21:05;100657.00;;;4.14;89.98
21504;BME280;10913;51.992;9.228;2023-04-02T07:23:31;100663.16;;;4.16;90.73
21504;BME280;10913;51.992;9.228;2023-04-02T07:25:56;100664.75;;;4.11;89.82
21504;BME280;10913;51.992;9.228;2023-04-02T07:28:22;100671.75;;;4.12;89.95
21504;BME280;10913;51.992;9.228;2023-04-02T07:30:48;100675.38;;;4.17;91.03
21504;BME280;10913;51.992;9.228;2023-04-02T07:33:16;100678.09;;;4.22;91.06
21504;BME280;10913;51.992;9.228;2023-04-02T07:35:42;100688.72;;;4.28;91.42
21504;BME280;10913;51.992;9.228;2023-04-02T07:38:08;100690.38;;;4.24;88.41
21504;BME280;10913;51.992;9.228;2023-04-02T07:40:33;100686.78;;;4.19;88.78
21504;BME280;10913;51.992;9.228;2023-04-02T07:42:59;100699.59;;;4.10;88.47
21504;BME280;10913;51.992;9.228;2023-04-02T07:45:25;100706.44;;;4.05;88.80
21504;BME280;10913;51.992;9.228;2023-04-02T07:47:50;100711.66;;;4.05;88.12
21504;BME280;10913;51.992;9.228;2023-04-02T07:50:16;100715.19;;;4.07;89.13
21504;BME280;10913;51.992;9.228;2023-04-02T07:52:42;100722.13;;;4.05;88.31
21504;BME280;10913;51.992;9.228;2023-04-02T07:55:12;100721.97;;;3.99;90.10
21504;BME280;10913;51.992;9.228;2023-04-02T07:57:39;100729.81;;;4.00;89.55
21504;BME280;10913;51.992;9.228;2023-04-02T08:00:13;100725.66;;;4.07;90.74
21504;BME280;10913;51.992;9.228;2023-04-02T08:02:39;100730.88;;;4.07;88.65
21504;BME280;10913;51.992;9.228;2023-04-02T08:05:06;100727.50;;;4.11;89.24
21504;BME280;10913;51.992;9.228;2023-04-02T08:07:32;100737.22;;;4.15;91.02
21504;BME280;10913;51.992;9.228;2023-04-02T08:09:57;100744.25;;;4.18;91.33
21504;BME280;10913;51.992;9.228;2023-04-02T08:12:22;100751.34;;;4.23;91.87
21504;BME280;10913;51.992;9.228;2023-04-02T08:14:48;100750.59;;;4.27;91.17
21504;BME280;10913;51.992;9.228;2023-04-02T08:17:14;100760.22;;;4.28;89.93
21504;BME280;10913;51.992;9.228;2023-04-02T08:19:40;100764.69;;;4.32;89.48
21504;BME280;10913;51.992;9.228;2023-04-02T08:22:06;100768.25;;;4.36;90.84
21504;BME280;10913;51.992;9.228;2023-04-02T08:24:31;100776.25;;;4.42;90.26
21504;BME280;10913;51.992;9.228;2023-04-02T08:26:57;100771.91;;;4.42;89.21
21504;BME280;10913;51.992;9.228;2023-04-02T08:29:22;100777.03;;;4.38;88.85
21504;BME280;10913;51.992;9.228;2023-04-02T08:31:48;100780.59;;;4.41;88.79
21504;BME280;10913;51.992;9.228;2023-04-02T08:34:13;100783.16;;;4.38;88.31
21504;BME280;10913;51.992;9.228;2023-04-02T08:36:40;100789.38;;;4.43;89.34
21504;BME280;10913;51.992;9.228;2023-04-02T08:39:07;100792.22;;;4.53;89.26
21504;BME280;10913;51.992;9.228;2023-04-02T08:41:43;100795.78;;;4.55;87.58
21504;BME280;10913;51.992;9.228;2023-04-02T08:44:23;100805.47;;;4.59;87.53
21504;BME280;10913;51.992;9.228;2023-04-02T08:47:02;100808.06;;;4.57;87.66
21504;BME280;10913;51.992;9.228;2023-04-02T08:51:54;100812.22;;;4.50;86.10
21504;BME280;10913;51.992;9.228;2023-04-02T08:54:29;100817.44;;;4.49;86.75
21504;BME280;10913;51.992;9.228;2023-04-02T08:59:41;100820.25;;;4.57;87.26
21504;BME280;10913;51.992;9.228;2023-04-02T09:04:47;100840.56;;;4.67;85.85
21504;BME280;10913;51.992;9.228;2023-04-02T09:07:15;100839.53;;;4.62;85.45
21504;BME280;10913;51.992;9.228;2023-04-02T09:09:41;100839.66;;;4.66;85.33
21504;BME280;10913;51.992;9.228;2023-04-02T09:12:23;100857.09;;;4.66;85.24
21504;BME280;10913;51.992;9.228;2023-04-02T09:15:41;100854.56;;;4.69;83.94
21504;BME280;10913;51.992;9.228;2023-04-02T09:18:14;100858.91;;;4.68;84.55
21504;BME280;10913;51.992;9.228;2023-04-02T09:20:40;100872.13;;;4.73;84.66
21504;BME280;10913;51.992;9.228;2023-04-02T09:23:26;100869.56;;;4.74;83.01
21504;BME280;10913;51.992;9.228;2023-04-02T09:25:53;100875.81;;;4.81;85.17
21504;BME280;10913;51.992;9.228;2023-04-02T09:28:19;100871.75;;;4.92;85.41
21504;BME280;10913;51.992;9.228;2023-04-02T09:33:45;100873.66;;;5.34;84.19
21504;BME280;10913;51.992;9.228;2023-04-02T09:36:25;100885.31;;;5.48;85.32
21504;BME280;10913;51.992;9.228;2023-04-02T09:39:01;100887.25;;;5.55;82.00
21504;BME280;10913;51.992;9.228;2023-04-02T09:41:33;100891.41;;;5.47;82.76
21504;BME280;10913;51.992;9.228;2023-04-02T09:44:26;100892.09;;;5.40;82.79
21504;BME280;10913;51.992;9.228;2023-04-02T09:46:58;100901.63;;;5.35;83.28
21504;BME280;10913;51.992;9.228;2023-04-02T09:49:33;100919.03;;;5.33;83.40
21504;BME280;10913;51.992;9.228;2023-04-02T09:52:27;100910.25;;;5.31;82.18
21504;BME280;10913;51.992;9.228;2023-04-02T09:57:45;100926.72;;;5.27;82.05
21504;BME280;10913;51.992;9.228;2023-04-02T10:00:37;100928.47;;;5.26;83.61
21504;BME280;10913;51.992;9.228;2023-04-02T10:05:48;100950.38;;;5.30;84.46
21504;BME280;10913;51.992;9.228;2023-04-02T10:08:24;100945.22;;;5.33;84.44
21504;BME280;10913;51.992;9.228;2023-04-02T10:10:59;100942.78;;;5.39;84.66
21504;BME280;10913;51.992;9.228;2023-04-02T10:18:53;100953.88;;;5.30;82.18
21504;BME280;10913;51.992;9.228;2023-04-02T10:21:26;100956.50;;;5.30;81.96
21504;BME280;10913;51.992;9.228;2023-04-02T10:23:53;100960.88;;;5.30;82.12
21504;BME280;10913;51.992;9.228;2023-04-02T10:26:32;100969.59;;;5.30;83.24
21504;BME280;10913;51.992;9.228;2023-04-02T10:32:08;100978.44;;;5.34;81.12
21504;BME280;10913;51.992;9.228;2023-04-02T10:34:43;100974.22;;;5.40;83.80
21504;BME280;10913;51.992;9.228;2023-04-02T10:37:52;100976.28;;;5.52;83.82
21504;BME280;10913;51.992;9.228;2023-04-02T10:45:50;100983.44;;;5.61;82.73
21504;BME280;10913;51.992;9.228;2023-04-02T10:48:39;100983.66;;;5.68;83.97
21504;BME280;10913;51.992;9.228;2023-04-02T10:51:28;100984.66;;;5.73;82.58
21504;BME280;10913;51.992;9.228;2023-04-02T10:56:48;100988.63;;;5.92;82.71
21504;BME280;10913;51.992;9.228;2023-04-02T10:59:23;100986.97;;;5.96;81.72
21504;BME280;10913;51.992;9.228;2023-04-02T11:01:54;100994.09;;;6.03;82.75
21504;BME280;10913;51.992;9.228;2023-04-02T11:04:28;100999.41;;;6.06;78.94
21504;BME280;10913;51.992;9.228;2023-04-02T11:07:18;100991.50;;;6.43;82.28
21504;BME280;10913;51.992;9.228;2023-04-02T11:09:46;100997.31;;;6.71;78.75
21504;BME280;10913;51.992;9.228;2023-04-02T11:12:40;101009.75;;;6.78;78.78
21504;BME280;10913;51.992;9.228;2023-04-02T11:15:17;100998.38;;;6.80;79.21
21504;BME280;10913;51.992;9.228;2023-04-02T11:17:44;101017.84;;;6.90;79.27
21504;BME280;10913;51.992;9.228;2023-04-02T11:23:16;101025.72;;;6.90;78.60
21504;BME280;10913;51.992;9.228;2023-04-02T11:25:42;101026.63;;;6.92;78.35
21504;BME280;10913;51.992;9.228;2023-04-02T11:28:28;101025.78;;;6.93;77.41
21504;BME280;10913;51.992;9.228;2023-04-02T11:30:55;101031.88;;;6.90;77.60
21504;BME280;10913;51.992;9.228;2023-04-02T11:35:57;101037.88;;;6.85;80.04
21504;BME280;10913;51.992;9.228;2023-04-02T11:40:52;101057.84;;;6.77;78.77
21504;BME280;10913;51.992;9.228;2023-04-02T11:48:40;101056.75;;;6.67;80.92
21504;BME280;10913;51.992;9.228;2023-04-02T11:53:55;101064.13;;;6.85;79.84
21504;BME280;10913;51.992;9.228;2023-04-02T11:59:22;101075.72;;;6.95;80.62
21504;BME280;10913;51.992;9.228;2023-04-02T12:01:58;101081.22;;;7.07;79.34
21504;BME280;10913;51.992;9.228;2023-04-02T12:07:18;101084.38;;;7.33;76.44
21504;BME280;10913;51.992;9.228;2023-04-02T12:09:54;101086.00;;;7.28;78.19
21504;BME280;10913;51.992;9.228;2023-04-02T12:14:48;101087.97;;;7.38;77.74
21504;BME280;10913;51.992;9.228;2023-04-02T12:17:27;101096.06;;;7.50;78.28
21504;BME280;10913;51.992;9.228;2023-04-02T12:19:56;101096.25;;;7.60;77.66
21504;BME280;10913;51.992;9.228;2023-04-02T12:22:25;101097.13;;;7.58;77.88
21504;BME280;10913;51.992;9.228;2023-04-02T12:24:54;101097.13;;;7.58;76.20
21504;BME280;10913;51.992;9.228;2023-04-02T12:27:24;101093.69;;;7.64;76.85
21504;BME280;10913;51.992;9.228;2023-04-02T12:32:56;101105.09;;;7.64;76.29
21504;BME280;10913;51.992;9.228;2023-04-02T12:35:30;101104.19;;;7.62;75.48
21504;BME280;10913;51.992;9.228;2023-04-02T12:37:56;101105.16;;;7.67;74.40
21504;BME280;10913;51.992;9.228;2023-04-02T12:40:23;101105.97;;;7.65;72.44
21504;BME280;10913;51.992;9.228;2023-04-02T12:42:48;101114.66;;;7.60;73.91
21504;BME280;10913;51.992;9.228;2023-04-02T12:45:25;101115.25;;;7.44;74.72
21504;BME280;10913;51.992;9.228;2023-04-02T12:47:51;101110.97;;;7.49;75.35
21504;BME280;10913;51.992;9.228;2023-04-02T12:50:18;101119.94;;;7.59;75.57
21504;BME280;10913;51.992;9.228;2023-04-02T12:52:46;101125.34;;;7.68;74.96
21504;BME280;10913;51.992;9.228;2023-04-02T12:55:16;101130.78;;;7.77;74.68
21504;BME280;10913;51.992;9.228;2023-04-02T12:57:43;101127.53;;;7.92;75.30
21504;BME280;10913;51.992;9.228;2023-04-02T13:02:47;101126.75;;;7.98;72.52
21504;BME280;10913;51.992;9.228;2023-04-02T13:05:31;101136.34;;;7.95;73.34
21504;BME280;10913;51.992;9.228;2023-04-02T13:07:57;101127.78;;;8.09;73.86
21504;BME280;10913;51.992;9.228;2023-04-02T13:10:25;101127.97;;;8.18;72.07
21504;BME280;10913;51.992;9.228;2023-04-02T13:12:55;101128.00;;;8.21;71.83
21504;BME280;10913;51.992;9.228;2023-04-02T13:15:23;101129.69;;;8.16;70.69
21504;BME280;10913;51.992;9.228;2023-04-02T13:20:40;101134.63;;;8.49;72.75
21504;BME280;10913;51.992;9.228;2023-04-02T13:26:18;101129.75;;;8.76;69.52
21504;BME280;10913;51.992;9.228;2023-04-02T13:29:09;101135.94;;;8.80;71.71
21504;BME280;10913;51.992;9.228;2023-04-02T13:31:41;101134.25;;;8.85;69.51
21504;BME280;10913;51.992;9.228;2023-04-02T13:34:06;101144.44;;;8.59;71.46
21504;BME280;10913;51.992;9.228;2023-04-02T13:36:32;101138.44;;;8.69;72.29
21504;BME280;10913;51.992;9.228;2023-04-02T13:38:57;101135.94;;;8.80;71.35
21504;BME280;10913;51.992;9.228;2023-04-02T13:41:26;101137.97;;;8.99;70.93
21504;BME280;10913;51.992;9.228;2023-04-02T13:43:53;101132.81;;;9.08;69.93
21504;BME280;10913;51.992;9.228;2023-04-02T13:46:21;101135.56;;;9.16;70.60
21504;BME280;10913;51.992;9.228;2023-04-02T13:48:49;101131.25;;;9.25;69.61
21504;BME280;10913;51.992;9.228;2023-04-02T13:51:17;101139.22;;;9.28;70.44
21504;BME280;10913;51.992;9.228;2023-04-02T13:53:44;101122.41;;;9.20;68.05
21504;BME280;10913;51.992;9.228;2023-04-02T13:56:10;101137.41;;;9.26;67.42
21504;BME280;10913;51.992;9.228;2023-04-02T13:58:36;101125.88;;;9.15;67.58
21504;BME280;10913;51.992;9.228;2023-04-02T14:01:02;101135.22;;;8.91;67.77
21504;BME280;10913;51.992;9.228;2023-04-02T14:03:27;101134.34;;;8.91;68.20
21504;BME280;10913;51.992;9.228;2023-04-02T14:11:52;101134.72;;;9.18;67.91
21504;BME280;10913;51.992;9.228;2023-04-02T14:19:45;101149.94;;;8.74;68.10
21504;BME280;10913;51.992;9.228;2023-04-02T14:27:23;101146.63;;;8.89;68.44
21504;BME280;10913;51.992;9.228;2023-04-02T14:30:05;101158.06;;;8.91;68.45
21504;BME280;10913;51.992;9.228;2023-04-02T14:35:37;101150.31;;;9.03;69.50
21504;BME280;10913;51.992;9.228;2023-04-02T14:38:16;101148.75;;;9.17;69.51
21504;BME280;10913;51.992;9.228;2023-04-02T14:43:39;101158.72;;;9.44;69.25
21504;BME280;10913;51.992;9.228;2023-04-02T14:46:08;101158.78;;;9.47;67.61
21504;BME280;10913;51.992;9.228;2023-04-02T14:48:56;101155.16;;;9.41;66.04
21504;BME280;10913;51.992;9.228;2023-04-02T14:51:45;101158.72;;;9.43;66.56
21504;BME280;10913;51.992;9.228;2023-04-02T14:54:33;101152.31;;;9.22;66.17
21504;BME280;10913;51.992;9.228;2023-04-02T14:59:38;101168.00;;;9.12;66.63
21504;BME280;10913;51.992;9.228;2023-04-02T15:03:03;101175.03;;;9.11;67.20
21504;BME280;10913;51.992;9.228;2023-04-02T15:08:27;101174.00;;;8.98;67.81
21504;BME280;10913;51.992;9.228;2023-04-02T15:13:24;101171.28;;;8.94;70.00
21504;BME280;10913;51.992;9.228;2023-04-02T15:15:53;101170.53;;;9.04;69.64
21504;BME280;10913;51.992;9.228;2023-04-02T15:18:21;101175.03;;;9.11;69.05
21504;BME280;10913;51.992;9.228;2023-04-02T15:24:24;101177.66;;;9.11;67.61
21504;BME280;10913;51.992;9.228;2023-04-02T15:31:44;101173.16;;;9.03;69.26
21504;BME280;10913;51.992;9.228;2023-04-02T15:34:33;101179.34;;;9.06;69.10
21504;BME280;10913;51.992;9.228;2023-04-02T15:37:07;101174.03;;;9.03;67.04
21504;BME280;10913;51.992;9.228;2023-04-02T15:39:46;101174.00;;;8.98;69.23
21504;BME280;10913;51.992;9.228;2023-04-02T15:42:24;101173.00;;;8.92;70.75
21504;BME280;10913;51.992;9.228;2023-04-02T15:48:03;101187.16;;;8.97;69.27
21504;BME280;10913;51.992;9.228;2023-04-02T16:01:28;101211.34;;;8.72;69.46
21504;BME280;10913;51.992;9.228;2023-04-02T16:09:30;101226.47;;;8.85;70.53
21504;BME280;10913;51.992;9.228;2023-04-02T16:12:14;101223.88;;;8.86;69.11
21504;BME280;10913;51.992;9.228;2023-04-02T16:14:43;101226.66;;;8.95;68.56
21504;BME280;10913;51.992;9.228;2023-04-02T16:17:23;101227.59;;;8.99;68.61
21504;BME280;10913;51.992;9.228;2023-04-02T16:19:52;101236.34;;;8.98;66.10
21504;BME280;10913;51.992;9.228;2023-04-02T16:22:25;101227.53;;;8.96;68.06
21504;BME280;10913;51.992;9.228;2023-04-02T16:25:13;101235.44;;;8.96;68.65
21504;BME280;10913;51.992;9.228;2023-04-02T16:27:43;101254.66;;;8.89;68.42
21504;BME280;10913;51.992;9.228;2023-04-02T16:30:23;101249.31;;;8.84;68.21
21504;BME280;10913;51.992;9.228;2023-04-02T16:35:27;101264.69;;;8.57;69.23
21504;BME280;10913;51.992;9.228;2023-04-02T16:38:05;101262.72;;;8.45;68.98
21504;BME280;10913;51.992;9.228;2023-04-02T16:43:45;101275.56;;;8.30;68.90
21504;BME280;10913;51.992;9.228;2023-04-02T16:48:50;101271.97;;;8.25;69.45
21504;BME280;10913;51.992;9.228;2023-04-02T16:51:49;101278.06;;;8.22;70.42
21504;BME280;10913;51.992;9.228;2023-04-02T17:02:30;101285.97;;;8.24;68.78
21504;BME280;10913;51.992;9.228;2023-04-02T17:07:51;101291.25;;;8.24;68.19
21504;BME280;10913;51.992;9.228;2023-04-02T17:15:38;101297.50;;;8.29;70.26